sensor_id;sensor_type;location;lat;lon;timestamp;P1;durP1;ratioP1;P2;durP2;ratioP2
39094;SDS011;24840;47.508;19.376;2022-12-07T00:01:14;19.13;;;13.20;;
39094;SDS011;24840;47.508;19.376;2022-12-07T00:03:48;19.27;;;14.03;;
39094;SDS011;24840;47.508;19.376;2022-12-07T00:06:15;20.17;;;13.90;;
39094;SDS011;24840;47.508;19.376;2022-12-07T00:08:42;20.50;;;13.93;;
39094;SDS011;24840;47.508;19.376;2022-12-07T00:11:09;17.07;;;12.30;;
39094;SDS011;24840;47.508;19.376;2022-12-07T00:13:36;21.13;;;12.97;;
39094;SDS011;24840;47.508;19.376;2022-12-07T00:16:04;18.07;;;12.93;;
39094;SDS011;24840;47.508;19.376;2022-12-07T00:18:34;21.80;;;13.17;;
39094;SDS011;24840;47.508;19.376;2022-12-07T00:26:32;18.67;;;13.33;;
39094;SDS011;24840;47.508;19.376;2022-12-07T00:29:02;20.57;;;13.47;;
39094;SDS011;24840;47.508;19.376;2022-12-07T00:37:51;26.20;;;13.03;;
39094;SDS011;24840;47.508;19.376;2022-12-07T00:40:17;20.47;;;14.63;;
39094;SDS011;24840;47.508;19.376;2022-12-07T00:42:43;19.20;;;14.63;;
39094;SDS011;24840;47.508;19.376;2022-12-07T00:45:08;21.53;;;13.63;;
39094;SDS011;24840;47.508;19.376;2022-12-07T00:47:34;17.77;;;13.60;;
39094;SDS011;24840;47.508;19.376;2022-12-07T00:50:00;18.27;;;13.47;;
39094;SDS011;24840;47.508;19.376;2022-12-07T00:52:25;15.33;;;11.80;;
39094;SDS011;24840;47.508;19.376;2022-12-07T00:54:51;15.50;;;12.33;;
39094;SDS011;24840;47.508;19.376;2022-12-07T00:57:17;17.30;;;13.27;;
39094;SDS011;24840;47.508;19.376;2022-12-07T00:59:43;17.80;;;11.40;;
39094;SDS011;24840;47.508;19.376;2022-12-07T01:02:08;15.13;;;12.47;;
39094;SDS011;24840;47.508;19.376;2022-12-07T01:04:34;15.53;;;12.00;;
39094;SDS011;24840;47.508;19.376;2022-12-07T01:07:00;14.03;;;11.47;;
39094;SDS011;24840;47.508;19.376;2022-12-07T01:09:27;14.80;;;11.17;;
39094;SDS011;24840;47.508;19.376;2022-12-07T01:11:53;16.07;;;11.40;;
39094;SDS011;24840;47.508;19.376;2022-12-07T01:14:19;16.57;;;12.73;;
39094;SDS011;24840;47.508;19.376;2022-12-07T01:17:01;18.47;;;12.03;;
39094;SDS011;24840;47.508;19.376;2022-12-07T01:19:26;12.52;;;8.57;;
39094;SDS011;24840;47.508;19.376;2022-12-07T01:21:52;15.00;;;10.47;;
39094;SDS011;24840;47.508;19.376;2022-12-07T01:27:39;17.80;;;11.17;;
39094;SDS011;24840;47.508;19.376;2022-12-07T01:30:05;16.07;;;11.43;;
39094;SDS011;24840;47.508;19.376;2022-12-07T01:32:32;15.83;;;11.50;;
39094;SDS011;24840;47.508;19.376;2022-12-07T01:35:06;16.13;;;11.87;;
39094;SDS011;24840;47.508;19.376;2022-12-07T01:37:36;14.73;;;9.80;;
39094;SDS011;24840;47.508;19.376;2022-12-07T01:40:03;14.87;;;10.40;;
39094;SDS011;24840;47.508;19.376;2022-12-07T01:42:31;15.50;;;11.33;;
39094;SDS011;24840;47.508;19.376;2022-12-07T01:47:42;14.87;;;10.17;;
39094;SDS011;24840;47.508;19.376;2022-12-07T01:50:11;15.50;;;11.53;;
39094;SDS011;24840;47.508;19.376;2022-12-07T01:56:00;19.57;;;12.13;;
39094;SDS011;24840;47.508;19.376;2022-12-07T01:58:25;15.30;;;11.67;;
39094;SDS011;24840;47.508;19.376;2022-12-07T02:00:51;17.83;;;12.50;;
39094;SDS011;24840;47.508;19.376;2022-12-07T02:05:49;15.60;;;11.52;;
39094;SDS011;24840;47.508;19.376;2022-12-07T02:08:16;14.97;;;11.10;;
39094;SDS011;24840;47.508;19.376;2022-12-07T02:10:43;17.37;;;12.50;;
39094;SDS011;24840;47.508;19.376;2022-12-07T02:13:19;15.20;;;12.77;;
39094;SDS011;24840;47.508;19.376;2022-12-07T02:18:31;17.38;;;13.00;;
39094;SDS011;24840;47.508;19.376;2022-12-07T02:29:31;17.23;;;12.23;;
39094;SDS011;24840;47.508;19.376;2022-12-07T02:32:13;18.13;;;12.50;;
39094;SDS011;24840;47.508;19.376;2022-12-07T02:34:42;15.83;;;12.07;;
39094;SDS011;24840;47.508;19.376;2022-12-07T02:39:59;18.03;;;13.00;;
39094;SDS011;24840;47.508;19.376;2022-12-07T02:42:33;20.90;;;12.47;;
39094;SDS011;24840;47.508;19.376;2022-12-07T02:45:03;23.20;;;13.13;;
39094;SDS011;24840;47.508;19.376;2022-12-07T02:50:21;15.07;;;12.10;;
39094;SDS011;24840;47.508;19.376;2022-12-07T02:52:47;13.57;;;12.13;;
39094;SDS011;24840;47.508;19.376;2022-12-07T02:55:13;17.47;;;12.80;;
39094;SDS011;24840;47.508;19.376;2022-12-07T03:00:29;17.47;;;12.20;;
39094;SDS011;24840;47.508;19.376;2022-12-07T03:03:07;18.53;;;13.73;;
39094;SDS011;24840;47.508;19.376;2022-12-07T03:08:31;18.10;;;12.97;;
39094;SDS011;24840;47.508;19.376;2022-12-07T03:11:33;17.38;;;12.82;;
39094;SDS011;24840;47.508;19.376;2022-12-07T03:14:06;25.63;;;15.13;;
39094;SDS011;24840;47.508;19.376;2022-12-07T03:22:33;18.57;;;12.73;;
39094;SDS011;24840;47.508;19.376;2022-12-07T03:25:02;16.73;;;12.47;;
39094;SDS011;24840;47.508;19.376;2022-12-07T03:30:33;21.23;;;13.93;;
39094;SDS011;24840;47.508;19.376;2022-12-07T03:33:08;17.83;;;13.83;;
39094;SDS011;24840;47.508;19.376;2022-12-07T03:41:15;21.00;;;13.40;;
39094;SDS011;24840;47.508;19.376;2022-12-07T03:43:49;20.47;;;15.97;;
39094;SDS011;24840;47.508;19.376;2022-12-07T03:49:08;20.07;;;14.00;;
39094;SDS011;24840;47.508;19.376;2022-12-07T03:51:39;18.83;;;14.53;;
39094;SDS011;24840;47.508;19.376;2022-12-07T03:54:17;18.97;;;14.30;;
39094;SDS011;24840;47.508;19.376;2022-12-07T03:56:56;21.70;;;15.17;;
39094;SDS011;24840;47.508;19.376;2022-12-07T03:59:23;17.77;;;13.83;;
39094;SDS011;24840;47.508;19.376;2022-12-07T04:01:53;17.77;;;14.00;;
39094;SDS011;24840;47.508;19.376;2022-12-07T04:04:21;14.65;;;10.73;;
39094;SDS011;24840;47.508;19.376;2022-12-07T04:06:49;18.23;;;13.67;;
39094;SDS011;24840;47.508;19.376;2022-12-07T04:09:15;15.33;;;12.73;;
39094;SDS011;24840;47.508;19.376;2022-12-07T04:11:42;16.93;;;13.80;;
39094;SDS011;24840;47.508;19.376;2022-12-07T04:14:08;17.87;;;13.87;;
39094;SDS011;24840;47.508;19.376;2022-12-07T04:20:07;16.20;;;13.03;;
39094;SDS011;24840;47.508;19.376;2022-12-07T04:22:33;22.13;;;13.20;;
39094;SDS011;24840;47.508;19.376;2022-12-07T04:24:59;16.37;;;13.50;;
39094;SDS011;24840;47.508;19.376;2022-12-07T04:27:25;18.13;;;14.23;;
39094;SDS011;24840;47.508;19.376;2022-12-07T04:29:50;17.10;;;13.07;;
39094;SDS011;24840;47.508;19.376;2022-12-07T04:32:16;20.53;;;13.80;;
39094;SDS011;24840;47.508;19.376;2022-12-07T04:34:42;17.30;;;13.30;;
39094;SDS011;24840;47.508;19.376;2022-12-07T04:37:07;17.03;;;12.73;;
39094;SDS011;24840;47.508;19.376;2022-12-07T04:42:19;16.93;;;13.10;;
39094;SDS011;24840;47.508;19.376;2022-12-07T04:44:45;19.67;;;14.23;;
39094;SDS011;24840;47.508;19.376;2022-12-07T04:47:10;21.33;;;15.40;;
39094;SDS011;24840;47.508;19.376;2022-12-07T04:49:36;18.93;;;13.60;;
39094;SDS011;24840;47.508;19.376;2022-12-07T04:52:02;22.00;;;14.63;;
39094;SDS011;24840;47.508;19.376;2022-12-07T04:54:28;13.37;;;10.83;;
39094;SDS011;24840;47.508;19.376;2022-12-07T04:56:54;18.07;;;13.23;;
39094;SDS011;24840;47.508;19.376;2022-12-07T04:59:19;16.53;;;13.03;;
39094;SDS011;24840;47.508;19.376;2022-12-07T05:01:45;16.80;;;13.90;;
39094;SDS011;24840;47.508;19.376;2022-12-07T05:04:11;15.50;;;12.30;;
39094;SDS011;24840;47.508;19.376;2022-12-07T05:06:37;16.00;;;12.63;;
39094;SDS011;24840;47.508;19.376;2022-12-07T05:12:24;16.77;;;12.73;;
39094;SDS011;24840;47.508;19.376;2022-12-07T05:14:50;16.17;;;12.77;;
39094;SDS011;24840;47.508;19.376;2022-12-07T05:17:16;14.27;;;11.53;;
39094;SDS011;24840;47.508;19.376;2022-12-07T05:19:41;17.67;;;13.27;;
39094;SDS011;24840;47.508;19.376;2022-12-07T05:22:07;13.97;;;11.73;;
39094;SDS011;24840;47.508;19.376;2022-12-07T05:24:33;15.50;;;12.67;;
39094;SDS011;24840;47.508;19.376;2022-12-07T05:26:59;19.67;;;14.47;;
39094;SDS011;24840;47.508;19.376;2022-12-07T05:29:29;20.90;;;15.53;;
39094;SDS011;24840;47.508;19.376;2022-12-07T05:31:54;19.40;;;13.57;;
39094;SDS011;24840;47.508;19.376;2022-12-07T05:34:20;21.33;;;14.03;;
39094;SDS011;24840;47.508;19.376;2022-12-07T05:39:36;17.23;;;13.20;;
39094;SDS011;24840;47.508;19.376;2022-12-07T05:42:05;20.00;;;14.90;;
39094;SDS011;24840;47.508;19.376;2022-12-07T05:44:37;16.75;;;13.63;;
39094;SDS011;24840;47.508;19.376;2022-12-07T05:47:07;20.20;;;14.53;;
39094;SDS011;24840;47.508;19.376;2022-12-07T05:49:32;21.27;;;15.83;;
39094;SDS011;24840;47.508;19.376;2022-12-07T05:51:58;17.30;;;13.73;;
39094;SDS011;24840;47.508;19.376;2022-12-07T05:54:24;15.83;;;12.93;;
39094;SDS011;24840;47.508;19.376;2022-12-07T05:59:39;17.03;;;13.47;;
39094;SDS011;24840;47.508;19.376;2022-12-07T06:04:52;16.03;;;13.67;;
39094;SDS011;24840;47.508;19.376;2022-12-07T06:07:18;19.90;;;14.63;;
39094;SDS011;24840;47.508;19.376;2022-12-07T06:09:43;17.57;;;14.40;;
39094;SDS011;24840;47.508;19.376;2022-12-07T06:12:10;18.00;;;12.97;;
39094;SDS011;24840;47.508;19.376;2022-12-07T06:14:55;19.53;;;14.80;;
39094;SDS011;24840;47.508;19.376;2022-12-07T06:20:08;18.77;;;13.13;;
39094;SDS011;24840;47.508;19.376;2022-12-07T06:22:34;18.27;;;13.97;;
39094;SDS011;24840;47.508;19.376;2022-12-07T06:25:00;20.53;;;13.00;;
39094;SDS011;24840;47.508;19.376;2022-12-07T06:27:26;18.73;;;13.97;;
39094;SDS011;24840;47.508;19.376;2022-12-07T06:30:05;17.00;;;13.23;;
39094;SDS011;24840;47.508;19.376;2022-12-07T06:32:31;15.20;;;12.07;;
39094;SDS011;24840;47.508;19.376;2022-12-07T06:34:58;17.90;;;13.83;;
39094;SDS011;24840;47.508;19.376;2022-12-07T06:37:24;18.63;;;14.67;;
39094;SDS011;24840;47.508;19.376;2022-12-07T06:39:50;22.53;;;15.00;;
39094;SDS011;24840;47.508;19.376;2022-12-07T06:42:15;18.27;;;14.60;;
39094;SDS011;24840;47.508;19.376;2022-12-07T06:44:41;19.20;;;15.00;;
39094;SDS011;24840;47.508;19.376;2022-12-07T06:47:07;18.37;;;14.73;;
39094;SDS011;24840;47.508;19.376;2022-12-07T06:49:34;18.00;;;15.23;;
39094;SDS011;24840;47.508;19.376;2022-12-07T06:52:00;19.10;;;15.40;;
39094;SDS011;24840;47.508;19.376;2022-12-07T06:54:25;17.80;;;15.27;;
39094;SDS011;24840;47.508;19.376;2022-12-07T06:56:51;16.33;;;13.53;;
39094;SDS011;24840;47.508;19.376;2022-12-07T06:59:17;17.70;;;13.23;;
39094;SDS011;24840;47.508;19.376;2022-12-07T07:01:42;17.90;;;14.07;;
39094;SDS011;24840;47.508;19.376;2022-12-07T07:04:08;16.43;;;14.00;;
39094;SDS011;24840;47.508;19.376;2022-12-07T07:06:34;16.30;;;13.20;;
39094;SDS011;24840;47.508;19.376;2022-12-07T07:12:21;19.03;;;14.57;;
39094;SDS011;24840;47.508;19.376;2022-12-07T07:14:47;17.87;;;14.63;;
39094;SDS011;24840;47.508;19.376;2022-12-07T07:17:13;16.43;;;12.47;;
39094;SDS011;24840;47.508;19.376;2022-12-07T07:22:45;19.57;;;13.83;;
39094;SDS011;24840;47.508;19.376;2022-12-07T07:25:11;16.50;;;12.37;;
39094;SDS011;24840;47.508;19.376;2022-12-07T07:30:36;16.33;;;12.80;;
39094;SDS011;24840;47.508;19.376;2022-12-07T07:33:02;24.33;;;17.33;;
39094;SDS011;24840;47.508;19.376;2022-12-07T07:35:29;19.17;;;15.23;;
39094;SDS011;24840;47.508;19.376;2022-12-07T07:37:57;14.43;;;12.27;;
39094;SDS011;24840;47.508;19.376;2022-12-07T07:40:23;18.47;;;13.93;;
39094;SDS011;24840;47.508;19.376;2022-12-07T07:42:59;113.27;;;68.67;;
39094;SDS011;24840;47.508;19.376;2022-12-07T07:45:25;28.43;;;22.13;;
39094;SDS011;24840;47.508;19.376;2022-12-07T07:47:52;19.30;;;15.73;;
39094;SDS011;24840;47.508;19.376;2022-12-07T07:50:29;20.47;;;16.40;;
39094;SDS011;24840;47.508;19.376;2022-12-07T07:52:56;21.33;;;15.97;;
39094;SDS011;24840;47.508;19.376;2022-12-07T07:55:23;18.33;;;14.27;;
39094;SDS011;24840;47.508;19.376;2022-12-07T07:57:48;19.67;;;13.70;;
39094;SDS011;24840;47.508;19.376;2022-12-07T08:00:14;21.13;;;15.93;;
39094;SDS011;24840;47.508;19.376;2022-12-07T08:02:41;24.17;;;17.80;;
39094;SDS011;24840;47.508;19.376;2022-12-07T08:08:29;25.67;;;19.77;;
39094;SDS011;24840;47.508;19.376;2022-12-07T08:10:55;32.07;;;21.93;;
39094;SDS011;24840;47.508;19.376;2022-12-07T08:13:21;36.27;;;24.27;;
39094;SDS011;24840;47.508;19.376;2022-12-07T08:15:47;36.73;;;25.10;;
39094;SDS011;24840;47.508;19.376;2022-12-07T08:18:13;33.17;;;24.90;;
39094;SDS011;24840;47.508;19.376;2022-12-07T08:20:40;35.60;;;27.20;;
39094;SDS011;24840;47.508;19.376;2022-12-07T08:23:07;43.13;;;28.17;;
39094;SDS011;24840;47.508;19.376;2022-12-07T08:25:36;37.17;;;25.97;;
39094;SDS011;24840;47.508;19.376;2022-12-07T08:28:02;36.30;;;24.57;;
39094;SDS011;24840;47.508;19.376;2022-12-07T08:30:29;30.33;;;22.70;;
39094;SDS011;24840;47.508;19.376;2022-12-07T08:33:04;35.90;;;24.33;;
39094;SDS011;24840;47.508;19.376;2022-12-07T08:35:47;34.25;;;24.45;;
39094;SDS011;24840;47.508;19.376;2022-12-07T08:38:13;33.27;;;25.47;;
39094;SDS011;24840;47.508;19.376;2022-12-07T08:44:01;31.30;;;23.90;;
39094;SDS011;24840;47.508;19.376;2022-12-07T08:46:29;31.87;;;24.67;;
39094;SDS011;24840;47.508;19.376;2022-12-07T08:49:06;32.07;;;23.97;;
39094;SDS011;24840;47.508;19.376;2022-12-07T08:51:41;28.90;;;21.97;;
39094;SDS011;24840;47.508;19.376;2022-12-07T08:57:01;37.43;;;26.37;;
39094;SDS011;24840;47.508;19.376;2022-12-07T08:59:28;35.23;;;26.77;;
39094;SDS011;24840;47.508;19.376;2022-12-07T09:01:57;36.90;;;25.87;;
39094;SDS011;24840;47.508;19.376;2022-12-07T09:04:23;37.50;;;26.77;;
39094;SDS011;24840;47.508;19.376;2022-12-07T09:06:49;36.20;;;26.47;;
39094;SDS011;24840;47.508;19.376;2022-12-07T09:09:26;35.33;;;28.03;;
39094;SDS011;24840;47.508;19.376;2022-12-07T09:11:52;37.30;;;27.63;;
39094;SDS011;24840;47.508;19.376;2022-12-07T09:14:18;36.70;;;28.07;;
39094;SDS011;24840;47.508;19.376;2022-12-07T09:16:44;36.17;;;26.80;;
39094;SDS011;24840;47.508;19.376;2022-12-07T09:19:15;40.77;;;30.37;;
39094;SDS011;24840;47.508;19.376;2022-12-07T09:21:43;41.40;;;27.17;;
39094;SDS011;24840;47.508;19.376;2022-12-07T09:24:12;41.80;;;30.10;;
39094;SDS011;24840;47.508;19.376;2022-12-07T09:26:43;40.70;;;29.70;;
39094;SDS011;24840;47.508;19.376;2022-12-07T09:29:09;37.10;;;26.30;;
39094;SDS011;24840;47.508;19.376;2022-12-07T09:35:03;34.80;;;26.60;;
39094;SDS011;24840;47.508;19.376;2022-12-07T09:37:32;35.90;;;29.10;;
39094;SDS011;24840;47.508;19.376;2022-12-07T09:40:06;34.73;;;26.43;;
39094;SDS011;24840;47.508;19.376;2022-12-07T09:45:25;34.53;;;27.63;;
39094;SDS011;24840;47.508;19.376;2022-12-07T09:48:02;35.97;;;26.77;;
39094;SDS011;24840;47.508;19.376;2022-12-07T09:53:51;37.33;;;29.30;;
39094;SDS011;24840;47.508;19.376;2022-12-07T09:56:24;37.07;;;29.23;;
39094;SDS011;24840;47.508;19.376;2022-12-07T09:59:09;38.37;;;30.17;;
39094;SDS011;24840;47.508;19.376;2022-12-07T10:05:35;25.60;;;20.63;;
39094;SDS011;24840;47.508;19.376;2022-12-07T10:08:04;28.10;;;22.57;;
39094;SDS011;24840;47.508;19.376;2022-12-07T10:10:33;25.93;;;20.70;;
39094;SDS011;24840;47.508;19.376;2022-12-07T10:13:19;26.73;;;19.37;;
39094;SDS011;24840;47.508;19.376;2022-12-07T10:15:54;22.30;;;18.90;;
39094;SDS011;24840;47.508;19.376;2022-12-07T10:18:34;27.20;;;20.20;;
39094;SDS011;24840;47.508;19.376;2022-12-07T10:21:16;23.70;;;19.67;;
39094;SDS011;24840;47.508;19.376;2022-12-07T10:26:36;23.27;;;18.97;;
39094;SDS011;24840;47.508;19.376;2022-12-07T10:29:14;22.20;;;19.03;;
39094;SDS011;24840;47.508;19.376;2022-12-07T10:31:59;27.47;;;22.73;;
39094;SDS011;24840;47.508;19.376;2022-12-07T10:34:26;21.43;;;18.67;;
39094;SDS011;24840;47.508;19.376;2022-12-07T10:39:56;20.87;;;17.97;;
39094;SDS011;24840;47.508;19.376;2022-12-07T10:42:26;21.57;;;18.07;;
39094;SDS011;24840;47.508;19.376;2022-12-07T10:54:03;19.10;;;16.60;;
39094;SDS011;24840;47.508;19.376;2022-12-07T11:21:53;25.90;;;17.63;;
39094;SDS011;24840;47.508;19.376;2022-12-07T11:24:50;21.87;;;17.43;;
39094;SDS011;24840;47.508;19.376;2022-12-07T11:35:43;18.50;;;16.50;;
39094;SDS011;24840;47.508;19.376;2022-12-07T11:38:42;18.35;;;16.15;;
39094;SDS011;24840;47.508;19.376;2022-12-07T11:41:16;20.13;;;16.75;;
39094;SDS011;24840;47.508;19.376;2022-12-07T11:43:56;23.70;;;17.60;;
39094;SDS011;24840;47.508;19.376;2022-12-07T11:49:27;19.50;;;17.35;;
39094;SDS011;24840;47.508;19.376;2022-12-07T11:52:13;20.40;;;17.17;;
39094;SDS011;24840;47.508;19.376;2022-12-07T12:00:55;19.83;;;17.40;;
39094;SDS011;24840;47.508;19.376;2022-12-07T12:03:40;23.37;;;17.17;;
39094;SDS011;24840;47.508;19.376;2022-12-07T12:06:20;20.43;;;16.87;;
39094;SDS011;24840;47.508;19.376;2022-12-07T12:12:17;27.47;;;18.30;;
39094;SDS011;24840;47.508;19.376;2022-12-07T12:21:28;18.70;;;15.13;;
39094;SDS011;24840;47.508;19.376;2022-12-07T12:24:06;11.38;;;9.60;;
39094;SDS011;24840;47.508;19.376;2022-12-07T12:33:23;16.17;;;12.15;;
39094;SDS011;24840;47.508;19.376;2022-12-07T12:50:37;8.80;;;5.20;;
39094;SDS011;24840;47.508;19.376;2022-12-07T12:56:10;6.75;;;5.40;;
39094;SDS011;24840;47.508;19.376;2022-12-07T12:58:48;7.72;;;6.07;;
39094;SDS011;24840;47.508;19.376;2022-12-07T13:07:47;8.25;;;5.22;;
39094;SDS011;24840;47.508;19.376;2022-12-07T13:13:00;7.18;;;3.88;;
39094;SDS011;24840;47.508;19.376;2022-12-07T13:15:52;5.97;;;4.05;;
39094;SDS011;24840;47.508;19.376;2022-12-07T13:18:24;5.57;;;4.10;;
39094;SDS011;24840;47.508;19.376;2022-12-07T13:21:00;5.28;;;3.85;;
39094;SDS011;24840;47.508;19.376;2022-12-07T13:23:35;5.63;;;3.53;;
39094;SDS011;24840;47.508;19.376;2022-12-07T13:29:20;6.25;;;3.42;;
39094;SDS011;24840;47.508;19.376;2022-12-07T13:31:57;4.40;;;3.83;;
39094;SDS011;24840;47.508;19.376;2022-12-07T13:34:28;6.05;;;4.00;;
39094;SDS011;24840;47.508;19.376;2022-12-07T13:39:57;8.52;;;4.18;;
39094;SDS011;24840;47.508;19.376;2022-12-07T13:42:41;5.78;;;4.60;;
39094;SDS011;24840;47.508;19.376;2022-12-07T13:48:33;6.70;;;5.10;;
39094;SDS011;24840;47.508;19.376;2022-12-07T13:51:14;9.52;;;5.40;;
39094;SDS011;24840;47.508;19.376;2022-12-07T13:53:48;6.43;;;5.40;;
39094;SDS011;24840;47.508;19.376;2022-12-07T13:56:20;10.90;;;6.32;;
39094;SDS011;24840;47.508;19.376;2022-12-07T13:58:47;7.78;;;5.82;;
39094;SDS011;24840;47.508;19.376;2022-12-07T14:01:12;8.50;;;6.53;;
39094;SDS011;24840;47.508;19.376;2022-12-07T14:03:38;8.05;;;6.43;;
39094;SDS011;24840;47.508;19.376;2022-12-07T14:06:15;7.70;;;6.38;;
39094;SDS011;24840;47.508;19.376;2022-12-07T14:08:43;6.50;;;5.22;;
39094;SDS011;24840;47.508;19.376;2022-12-07T14:11:13;8.63;;;6.55;;
39094;SDS011;24840;47.508;19.376;2022-12-07T14:14:01;9.30;;;6.05;;
39094;SDS011;24840;47.508;19.376;2022-12-07T14:22:23;5.90;;;5.23;;
39094;SDS011;24840;47.508;19.376;2022-12-07T14:25:43;6.87;;;5.47;;
39094;SDS011;24840;47.508;19.376;2022-12-07T14:27:46;11.93;;;4.50;;
39094;SDS011;24840;47.508;19.376;2022-12-07T14:33:47;4.80;;;3.57;;
39094;SDS011;24840;47.508;19.376;2022-12-07T14:36:13;7.47;;;5.50;;
39094;SDS011;24840;47.508;19.376;2022-12-07T14:38:39;11.30;;;6.07;;
39094;SDS011;24840;47.508;19.376;2022-12-07T14:41:06;7.57;;;5.00;;
39094;SDS011;24840;47.508;19.376;2022-12-07T14:49:46;15.30;;;6.10;;
39094;SDS011;24840;47.508;19.376;2022-12-07T14:52:13;7.30;;;5.80;;
39094;SDS011;24840;47.508;19.376;2022-12-07T14:54:42;16.13;;;6.30;;
39094;SDS011;24840;47.508;19.376;2022-12-07T14:57:08;8.67;;;6.00;;
39094;SDS011;24840;47.508;19.376;2022-12-07T14:59:38;11.57;;;7.80;;
39094;SDS011;24840;47.508;19.376;2022-12-07T15:05:26;8.90;;;4.73;;
39094;SDS011;24840;47.508;19.376;2022-12-07T15:07:52;6.50;;;4.53;;
39094;SDS011;24840;47.508;19.376;2022-12-07T15:10:28;7.37;;;4.73;;
39094;SDS011;24840;47.508;19.376;2022-12-07T15:13:01;6.00;;;5.13;;
39094;SDS011;24840;47.508;19.376;2022-12-07T15:15:49;11.97;;;5.73;;
39094;SDS011;24840;47.508;19.376;2022-12-07T15:18:16;13.83;;;6.30;;
39094;SDS011;24840;47.508;19.376;2022-12-07T15:20:42;6.90;;;4.70;;
39094;SDS011;24840;47.508;19.376;2022-12-07T15:23:09;6.27;;;4.30;;
39094;SDS011;24840;47.508;19.376;2022-12-07T15:25:35;5.80;;;4.37;;
39094;SDS011;24840;47.508;19.376;2022-12-07T15:28:01;13.77;;;5.70;;
39094;SDS011;24840;47.508;19.376;2022-12-07T15:30:27;73.27;;;9.47;;
39094;SDS011;24840;47.508;19.376;2022-12-07T15:32:53;8.03;;;5.00;;
39094;SDS011;24840;47.508;19.376;2022-12-07T15:35:19;5.73;;;4.60;;
39094;SDS011;24840;47.508;19.376;2022-12-07T15:37:46;7.20;;;4.97;;
39094;SDS011;24840;47.508;19.376;2022-12-07T15:40:12;7.07;;;5.07;;
39094;SDS011;24840;47.508;19.376;2022-12-07T15:42:39;8.87;;;5.47;;
39094;SDS011;24840;47.508;19.376;2022-12-07T15:45:11;6.93;;;4.60;;
39094;SDS011;24840;47.508;19.376;2022-12-07T15:50:29;8.73;;;5.57;;
39094;SDS011;24840;47.508;19.376;2022-12-07T15:52:58;8.70;;;5.47;;
39094;SDS011;24840;47.508;19.376;2022-12-07T15:58:46;6.73;;;4.90;;
39094;SDS011;24840;47.508;19.376;2022-12-07T16:01:16;7.80;;;5.30;;
39094;SDS011;24840;47.508;19.376;2022-12-07T16:03:54;7.90;;;5.73;;
39094;SDS011;24840;47.508;19.376;2022-12-07T16:06:22;8.57;;;6.37;;
39094;SDS011;24840;47.508;19.376;2022-12-07T16:08:48;7.93;;;5.60;;
39094;SDS011;24840;47.508;19.376;2022-12-07T16:11:14;8.77;;;6.23;;
39094;SDS011;24840;47.508;19.376;2022-12-07T16:13:39;12.67;;;5.77;;
39094;SDS011;24840;47.508;19.376;2022-12-07T16:16:06;9.17;;;5.73;;
39094;SDS011;24840;47.508;19.376;2022-12-07T16:18:35;9.20;;;8.00;;
39094;SDS011;24840;47.508;19.376;2022-12-07T16:21:00;16.27;;;12.90;;
39094;SDS011;24840;47.508;19.376;2022-12-07T16:23:26;12.77;;;9.93;;
39094;SDS011;24840;47.508;19.376;2022-12-07T16:25:53;10.67;;;7.50;;
39094;SDS011;24840;47.508;19.376;2022-12-07T16:28:18;9.53;;;7.37;;
39094;SDS011;24840;47.508;19.376;2022-12-07T16:30:44;10.20;;;7.87;;
39094;SDS011;24840;47.508;19.376;2022-12-07T16:33:10;12.93;;;8.00;;
39094;SDS011;24840;47.508;19.376;2022-12-07T16:35:39;9.77;;;8.37;;
39094;SDS011;24840;47.508;19.376;2022-12-07T16:38:06;13.00;;;10.17;;
39094;SDS011;24840;47.508;19.376;2022-12-07T16:40:32;12.40;;;9.07;;
39094;SDS011;24840;47.508;19.376;2022-12-07T16:42:57;10.47;;;8.20;;
39094;SDS011;24840;47.508;19.376;2022-12-07T16:52:04;7.82;;;6.15;;
39094;SDS011;24840;47.508;19.376;2022-12-07T16:54:30;11.90;;;8.73;;
39094;SDS011;24840;47.508;19.376;2022-12-07T17:00:06;11.87;;;8.90;;
39094;SDS011;24840;47.508;19.376;2022-12-07T17:02:47;8.97;;;6.83;;
39094;SDS011;24840;47.508;19.376;2022-12-07T17:05:15;9.73;;;7.23;;
39094;SDS011;24840;47.508;19.376;2022-12-07T17:07:41;11.47;;;8.03;;
39094;SDS011;24840;47.508;19.376;2022-12-07T17:10:07;10.40;;;7.43;;
39094;SDS011;24840;47.508;19.376;2022-12-07T17:12:58;30.37;;;9.13;;
39094;SDS011;24840;47.508;19.376;2022-12-07T17:15:29;20.53;;;10.20;;
39094;SDS011;24840;47.508;19.376;2022-12-07T17:17:56;59.70;;;33.87;;
39094;SDS011;24840;47.508;19.376;2022-12-07T17:38:03;14.20;;;8.40;;
39094;SDS011;24840;47.508;19.376;2022-12-07T17:47:35;13.20;;;7.28;;
39094;SDS011;24840;47.508;19.376;2022-12-07T17:56:56;12.27;;;8.87;;
39094;SDS011;24840;47.508;19.376;2022-12-07T17:59:22;10.10;;;8.80;;
39094;SDS011;24840;47.508;19.376;2022-12-07T18:02:04;13.37;;;8.07;;
39094;SDS011;24840;47.508;19.376;2022-12-07T18:04:29;12.03;;;9.00;;
39094;SDS011;24840;47.508;19.376;2022-12-07T18:06:55;13.63;;;9.03;;
39094;SDS011;24840;47.508;19.376;2022-12-07T18:09:21;10.23;;;8.27;;
39094;SDS011;24840;47.508;19.376;2022-12-07T18:12:00;11.33;;;8.83;;
39094;SDS011;24840;47.508;19.376;2022-12-07T18:14:32;10.73;;;8.23;;
39094;SDS011;24840;47.508;19.376;2022-12-07T18:20:15;9.17;;;7.03;;
39094;SDS011;24840;47.508;19.376;2022-12-07T18:22:41;12.23;;;8.70;;
39094;SDS011;24840;47.508;19.376;2022-12-07T18:25:07;11.57;;;8.13;;
39094;SDS011;24840;47.508;19.376;2022-12-07T18:30:26;13.73;;;7.97;;
39094;SDS011;24840;47.508;19.376;2022-12-07T18:32:52;12.37;;;9.33;;
39094;SDS011;24840;47.508;19.376;2022-12-07T18:35:18;11.23;;;8.30;;
39094;SDS011;24840;47.508;19.376;2022-12-07T18:37:44;28.17;;;15.73;;
39094;SDS011;24840;47.508;19.376;2022-12-07T18:40:09;13.47;;;9.90;;
39094;SDS011;24840;47.508;19.376;2022-12-07T18:42:35;14.60;;;8.97;;
39094;SDS011;24840;47.508;19.376;2022-12-07T18:45:01;14.77;;;9.33;;
39094;SDS011;24840;47.508;19.376;2022-12-07T18:47:27;15.10;;;10.07;;
39094;SDS011;24840;47.508;19.376;2022-12-07T18:49:53;18.47;;;11.27;;
39094;SDS011;24840;47.508;19.376;2022-12-07T18:53:10;17.23;;;10.83;;
39094;SDS011;24840;47.508;19.376;2022-12-07T18:55:44;14.87;;;10.03;;
39094;SDS011;24840;47.508;19.376;2022-12-07T18:58:47;19.27;;;11.03;;
39094;SDS011;24840;47.508;19.376;2022-12-07T19:01:55;13.05;;;9.65;;
39094;SDS011;24840;47.508;19.376;2022-12-07T19:04:24;11.97;;;9.03;;
39094;SDS011;24840;47.508;19.376;2022-12-07T19:06:56;12.97;;;9.40;;
39094;SDS011;24840;47.508;19.376;2022-12-07T19:09:21;14.75;;;9.13;;
39094;SDS011;24840;47.508;19.376;2022-12-07T19:11:53;13.03;;;9.50;;
39094;SDS011;24840;47.508;19.376;2022-12-07T19:17:34;15.15;;;8.55;;
39094;SDS011;24840;47.508;19.376;2022-12-07T19:20:01;14.47;;;9.43;;
39094;SDS011;24840;47.508;19.376;2022-12-07T19:22:28;13.10;;;9.17;;
39094;SDS011;24840;47.508;19.376;2022-12-07T19:27:59;15.55;;;9.00;;
39094;SDS011;24840;47.508;19.376;2022-12-07T19:30:27;11.93;;;8.80;;
39094;SDS011;24840;47.508;19.376;2022-12-07T19:32:53;14.60;;;9.43;;
39094;SDS011;24840;47.508;19.376;2022-12-07T19:35:19;13.37;;;9.70;;
39094;SDS011;24840;47.508;19.376;2022-12-07T19:37:45;14.53;;;11.00;;